createdAt,value
2023-03-21T00:00:09.900Z,5.4
2023-03-21T00:05:29.984Z,5.9
2023-03-21T00:10:51.590Z,5.6
2023-03-21T00:16:32.344Z,5.3
2023-03-21T00:22:11.370Z,5.1
2023-03-21T00:27:47.465Z,5.1
2023-03-21T00:33:25.867Z,4.6
2023-03-21T00:38:58.833Z,4.3
2023-03-21T00:44:13.172Z,4
2023-03-21T00:50:05.445Z,3.9
2023-03-21T00:55:42.025Z,3.7
2023-03-21T01:01:00.353Z,3.9
2023-03-21T01:06:21.777Z,4.1
2023-03-21T01:11:55.519Z,4.1
2023-03-21T01:17:37.066Z,4.2
2023-03-21T01:23:26.358Z,4.8
2023-03-21T01:28:35.449Z,5
2023-03-21T01:34:17.097Z,4.9
2023-03-21T01:39:42.261Z,4.8
2023-03-21T01:45:14.660Z,4.9
2023-03-21T01:51:07.192Z,5.1
2023-03-21T01:56:41.627Z,4.9
2023-03-21T02:02:12.046Z,4.4
2023-03-21T02:07:24.710Z,4.6
2023-03-21T02:13:02.243Z,4.6
2023-03-21T02:18:55.658Z,4.6
2023-03-21T02:24:18.492Z,3.9
2023-03-21T02:29:46.198Z,3.4
2023-03-21T02:35:22.706Z,3.3
2023-03-21T02:40:42.530Z,3.3
2023-03-21T02:46:40.265Z,3.3
2023-03-21T02:52:00.212Z,3.4
2023-03-21T02:57:42.421Z,3
2023-03-21T03:02:59.718Z,2.9
2023-03-21T03:08:32.392Z,3.2
2023-03-21T03:14:21.359Z,2.8
2023-03-21T03:19:50.495Z,2.9
2023-03-21T03:25:22.942Z,2.8
2023-03-21T03:31:08.463Z,2.8
2023-03-21T03:36:30.760Z,2.7
2023-03-21T03:42:07.723Z,2.7
2023-03-21T03:47:33.609Z,2.5
2023-03-21T03:52:59.911Z,2.5
2023-03-21T03:58:45.502Z,2.6
2023-03-21T04:03:56.367Z,2.8
2023-03-21T04:09:51.909Z,2.7
2023-03-21T04:15:17.362Z,2.7
2023-03-21T04:20:54.058Z,2.7
2023-03-21T04:26:25.984Z,2.5
2023-03-21T04:31:48.037Z,2.4
2023-03-21T04:37:30.723Z,2.4
2023-03-21T04:43:01.116Z,2.3
2023-03-21T04:48:21.211Z,2.2
2023-03-21T04:53:53.652Z,2.2
2023-03-21T04:59:24.508Z,2.4
2023-03-21T05:05:14.508Z,2.1
2023-03-21T05:10:29.966Z,2.1
2023-03-21T05:16:04.928Z,2.3
2023-03-21T05:21:33.587Z,2.3
2023-03-21T05:27:07.968Z,2.3
2023-03-21T05:32:52.421Z,2.2
2023-03-21T05:38:09.207Z,2.2
2023-03-21T05:43:51.118Z,2.4
2023-03-21T05:49:31.723Z,2.4
2023-03-21T05:54:56.615Z,2.3
2023-03-21T06:00:31.945Z,2.6
2023-03-21T06:06:03.502Z,2.7
2023-03-21T06:11:31.426Z,2.9
2023-03-21T06:17:24.374Z,3
2023-03-21T06:22:52.793Z,3.4
2023-03-21T06:28:20.691Z,3.6
2023-03-21T06:33:59.593Z,3.9
2023-03-21T06:39:16.814Z,4
2023-03-21T06:45:08.733Z,4.1
2023-03-21T06:50:30.616Z,4.2
2023-03-21T06:56:13.318Z,4.4
2023-03-21T07:01:21.365Z,4.7
2023-03-21T07:06:59.920Z,5
2023-03-21T07:12:41.397Z,5.2
2023-03-21T07:18:27.873Z,5.3
2023-03-21T07:23:35.147Z,5.7
2023-03-21T07:29:16.977Z,5.5
2023-03-21T07:34:40.870Z,5.8
2023-03-21T07:40:14.484Z,5.5
2023-03-21T07:46:10.316Z,6
2023-03-21T07:51:26.697Z,6.2
2023-03-21T07:57:22.102Z,6.3
2023-03-21T08:02:29.983Z,6.7
2023-03-21T08:08:07.388Z,7.4
2023-03-21T08:13:45.175Z,7.5
2023-03-21T08:19:17.473Z,7.7
2023-03-21T08:24:56.151Z,7.1
2023-03-21T08:30:28.847Z,6.8
2023-03-21T08:35:53.914Z,7
2023-03-21T08:41:52.397Z,7.1
2023-03-21T08:47:06.131Z,7.3
2023-03-21T08:52:52.020Z,7.7
2023-03-21T08:58:13.792Z,8.1
2023-03-21T09:03:44.586Z,8.2
2023-03-21T09:09:21.169Z,8.3
2023-03-21T09:14:59.537Z,9.6
2023-03-21T09:20:26.489Z,8.5
2023-03-21T09:26:08.102Z,8.4
2023-03-21T09:31:58.703Z,8.6
2023-03-21T09:37:33.248Z,8.8
2023-03-21T09:42:52.305Z,8.9
2023-03-21T09:48:22.872Z,9.1
2023-03-21T09:54:13.766Z,9.5
2023-03-21T09:59:47.099Z,10
2023-03-21T10:05:26.216Z,10.2
2023-03-21T10:10:58.571Z,9.7
2023-03-21T10:16:24.330Z,10
2023-03-21T10:22:12.891Z,10.6
2023-03-21T10:27:36.617Z,11.1
2023-03-21T10:33:23.151Z,11.1
2023-03-21T10:38:40.948Z,12
2023-03-21T10:44:23.118Z,11.7
2023-03-21T10:50:07.580Z,10.9
2023-03-21T10:55:29.432Z,11.7
2023-03-21T11:01:10.334Z,11.3
2023-03-21T11:06:51.415Z,11.6
2023-03-21T11:12:39.996Z,11.2
2023-03-21T11:18:13.601Z,11.7
2023-03-21T11:23:42.750Z,11.6
2023-03-21T11:29:06.676Z,11.8
2023-03-21T11:34:38.843Z,11.5
2023-03-21T11:40:21.952Z,12.2
2023-03-21T11:46:09.816Z,12.6
2023-03-21T11:51:29.023Z,12.7
2023-03-21T11:57:13.951Z,13
2023-03-21T12:02:35.074Z,13
2023-03-21T12:08:24.172Z,13.3
2023-03-21T12:14:10.491Z,13
2023-03-21T12:25:26.846Z,12.7
2023-03-21T12:30:35.934Z,13.5
2023-03-21T12:36:18.419Z,13.1
2023-03-21T12:42:02.649Z,14.3
2023-03-21T12:47:34.258Z,15
2023-03-21T12:53:17.389Z,14.9
2023-03-21T12:58:49.550Z,13.9
2023-03-21T13:04:26.085Z,13.8
2023-03-21T13:10:17.407Z,13.7
2023-03-21T13:15:41.520Z,14.1
2023-03-21T13:21:29.577Z,15
2023-03-21T13:27:05.119Z,15.3
2023-03-21T13:32:46.850Z,15.5
2023-03-21T13:38:13.921Z,15.8
2023-03-21T13:43:46.288Z,15.2
2023-03-21T13:49:20.611Z,15.7
2023-03-21T13:54:50.232Z,15.7
2023-03-21T14:00:39.310Z,15.8
2023-03-21T14:06:01.305Z,16.3
2023-03-21T14:11:46.956Z,15.6
2023-03-21T14:17:16.049Z,16
2023-03-21T14:22:50.369Z,15.3
2023-03-21T14:28:28.240Z,15.5
2023-03-21T14:34:25.782Z,15.8
2023-03-21T14:39:52.629Z,15.8
2023-03-21T14:45:12.618Z,15.6
2023-03-21T14:51:11.958Z,15.6
2023-03-21T14:56:44.338Z,15.7
2023-03-21T15:02:13.365Z,15.7
2023-03-21T15:08:00.729Z,15.9
2023-03-21T15:13:12.167Z,15.7
2023-03-21T15:19:09.114Z,15.8
2023-03-21T15:24:30.617Z,15.7
2023-03-21T15:29:58.218Z,15.6
2023-03-21T15:35:52.833Z,15.3
2023-03-21T15:41:25.793Z,15.4
2023-03-21T15:46:41.295Z,15.6
2023-03-21T15:52:38.136Z,15.4
2023-03-21T15:58:07.929Z,15
2023-03-21T16:03:34.222Z,14.8
2023-03-21T16:09:22.187Z,14.8
2023-03-21T16:14:38.797Z,14.7
2023-03-21T16:20:26.244Z,14.5
2023-03-21T16:26:02.097Z,14.5
2023-03-21T16:31:40.387Z,14.3
2023-03-21T16:37:04.442Z,14.2
2023-03-21T16:42:27.672Z,14.7
2023-03-21T16:48:19.137Z,14.3
2023-03-21T16:53:41.115Z,13.8
2023-03-21T16:59:33.831Z,13.6
2023-03-21T17:04:45.833Z,13.6
2023-03-21T17:10:21.763Z,13.1
2023-03-21T17:16:12.632Z,13
2023-03-21T17:21:39.083Z,13.3
2023-03-21T17:27:18.573Z,13.3
2023-03-21T17:32:53.653Z,13.1
2023-03-21T17:38:18.739Z,12.9
2023-03-21T17:44:04.982Z,12.6
2023-03-21T17:49:16.463Z,12.7
2023-03-21T17:55:08.248Z,12.6
2023-03-21T18:00:50.814Z,12.3
2023-03-21T18:06:18.581Z,12.3
2023-03-21T18:11:35.284Z,12.1
2023-03-21T18:17:14.287Z,12
2023-03-21T18:23:02.083Z,12.1
2023-03-21T18:28:35.513Z,12.1
2023-03-21T18:34:12.221Z,11.8
2023-03-21T18:39:39.725Z,12
2023-03-21T18:45:19.307Z,11.7
2023-03-21T18:50:54.535Z,11.1
2023-03-21T18:56:36.881Z,9.7
2023-03-21T19:01:51.258Z,10.4
2023-03-21T19:07:23.570Z,10.3
2023-03-21T19:12:54.464Z,10.2
2023-03-21T19:18:39.214Z,10.4
2023-03-21T19:24:26.347Z,10.6
2023-03-21T19:29:41.410Z,10.8
2023-03-21T19:35:21.901Z,10.4
2023-03-21T19:40:45.132Z,10.6
2023-03-21T19:46:17.855Z,10.3
2023-03-21T19:51:44.055Z,10.6
2023-03-21T19:57:21.570Z,10.4
2023-03-21T20:02:50.792Z,10.6
2023-03-21T20:08:28.470Z,10.8
2023-03-21T20:14:11.119Z,9.7
2023-03-21T20:19:47.607Z,9.8
2023-03-21T20:25:08.173Z,10
2023-03-21T20:31:00.303Z,10
2023-03-21T20:36:39.195Z,10.1
2023-03-21T20:41:59.545Z,10.5
2023-03-21T20:47:15.415Z,10.5
2023-03-21T20:53:06.247Z,10.4
2023-03-21T20:58:52.088Z,10.4
2023-03-21T21:04:03.706Z,10.5
2023-03-21T21:09:50.355Z,10.3
2023-03-21T21:15:28.031Z,10
2023-03-21T21:20:51.480Z,9.9
2023-03-21T21:26:33.548Z,9.9
2023-03-21T21:32:04.674Z,10.1
2023-03-21T21:37:18.677Z,10.3
2023-03-21T21:42:56.440Z,10.2
2023-03-21T21:48:50.385Z,10.3
2023-03-21T21:54:14.782Z,9.7
2023-03-21T21:59:54.034Z,9.9
2023-03-21T22:05:15.300Z,10.1
2023-03-21T22:10:57.133Z,9.9
2023-03-21T22:16:17.048Z,9.9
2023-03-21T22:21:54.714Z,9.7
2023-03-21T22:27:42.631Z,9.4
2023-03-21T22:33:02.719Z,9.4
2023-03-21T22:38:38.776Z,9.5
2023-03-21T22:44:01.089Z,9.5
2023-03-21T22:49:55.626Z,9.4
2023-03-21T22:55:30.461Z,9.5
2023-03-21T23:00:55.065Z,9.5
2023-03-21T23:06:36.687Z,9.3
2023-03-21T23:12:00.201Z,9.2
2023-03-21T23:17:36.964Z,9.4
2023-03-21T23:23:16.155Z,9.3
2023-03-21T23:28:42.313Z,9.3
2023-03-21T23:34:24.432Z,8.8
2023-03-21T23:39:55.028Z,8.8
2023-03-21T23:45:26.325Z,8.4
2023-03-21T23:51:01.958Z,8.3
2023-03-21T23:56:30.306Z,8.1
